Time;durP1;ratioP1;P1;durP2;ratioP2;P2;SDS_P1;SDS_P2;PMS_P1;PMS_P2;Temp;Humidity;BMP_temperature;BMP_pressure;BME280_temperature;BME280_humidity;BME280_pressure;Samples;Min_cycle;Max_cycle;Signal;HPM_P1;HPM_P2
2022/08/23 00:00:04;;;;;;;16.60;8.10;;;;;;;16.84;100.00;98284.88;110061;1276;1016546;-83
2022/08/23 00:05:46;;;;;;;15.50;8.90;;;;;;;16.87;100.00;98278.24;109659;1279;1018180;-83
2022/08/23 00:12:04;;;;;;;17.40;8.90;;;;;;;16.89;100.00;98281.66;109744;1279;1016276;-83
2022/08/23 00:17:54;;;;;;;18.90;9.00;;;;;;;16.94;100.00;98287.29;109682;1279;1017043;-82
2022/08/23 00:23:34;;;;;;;16.50;8.90;;;;;;;16.99;100.00;98282.64;109520;1280;1016668;-82
2022/08/23 00:30:29;;;;;;;;;;;;;;;;;;;;;
2022/08/23 00:36:32;;;;;;;21.60;11.70;;;;;;;17.13;100.00;98295.71;109733;1277;1018941;-82
2022/08/23 00:48:27;;;;;;;;;;;;;;;17.22;100.00;98301.84;110170;1275;1018835;-82
2022/08/23 00:54:48;;;;;;;39.30;16.40;;;;;;;17.22;100.00;98302.67;109898;1276;1016517;-82
2022/08/23 01:00:22;;;;;;;36.30;15.70;;;;;;;17.21;100.00;98290.36;110006;1276;1016687;-82
2022/08/23 01:06:08;;;;;;;43.20;17.40;;;;;;;17.19;100.00;98301.83;110045;1276;1016268;-80
2022/08/23 01:12:04;;;;;;;45.10;17.80;;;;;;;17.19;100.00;98311.73;110098;1276;1018863;-81
2022/08/23 01:18:03;;;;;;;39.30;17.20;;;;;;;17.19;100.00;98315.05;109974;1276;1016660;-82
2022/08/23 01:24:03;;;;;;;34.70;15.20;;;;;;;17.24;100.00;98318.75;110119;1276;1016277;-79
2022/08/23 01:29:33;;;;;;;;;;;;;;;;;;;;;
2022/08/23 01:35:06;;;;;;;34.60;15.30;;;;;;;17.32;100.00;98321.30;110136;1276;1016480;-81
2022/08/23 01:40:45;;;;;;;20.90;12.10;;;;;;;17.32;100.00;98320.42;109956;1277;1016766;-80
2022/08/23 01:46:50;;;;;;;;;;;;;;;;;;;;;
2022/08/23 01:52:18;;;;;;;25.90;13.10;;;;;;;17.19;100.00;98330.45;109969;1277;1016761;-81
2022/08/23 01:57:57;;;;;;;23.60;12.40;;;;;;;17.17;100.00;98335.03;109993;1276;1016488;-81
2022/08/23 02:03:36;;;;;;;20.70;11.80;;;;;;;17.16;100.00;98330.58;109978;1277;1016790;-82
2022/08/23 02:09:06;;;;;;;20.70;11.40;;;;;;;17.14;100.00;98329.96;109796;1278;1016288;-81
2022/08/23 02:14:49;;;;;;;19.10;10.70;;;;;;;17.10;100.00;98325.22;109954;1276;1016450;-81
2022/08/23 02:20:45;;;;;;;20.50;10.80;;;;;;;17.08;100.00;98327.18;110016;1276;1016699;-81
2022/08/23 02:26:12;;;;;;;18.30;10.60;;;;;;;17.06;100.00;98321.95;109734;1276;1017132;-81
2022/08/23 02:31:45;;;;;;;20.20;10.70;;;;;;;17.02;100.00;98322.38;109847;1276;1017116;-82
2022/08/23 02:37:16;;;;;;;20.80;10.70;;;;;;;16.98;100.00;98325.19;110135;1277;1018879;-81
2022/08/23 02:42:46;;;;;;;28.20;12.90;;;;;;;16.97;100.00;98328.89;110078;1277;1016627;-81
2022/08/23 02:48:16;;;;;;;25.30;12.50;;;;;;;16.93;100.00;98343.45;110001;1277;1016608;-81
2022/08/23 02:53:57;;;;;;;24.10;12.20;;;;;;;16.87;100.00;98345.73;110030;1277;1019091;-80
2022/08/23 02:59:49;;;;;;;28.00;12.70;;;;;;;16.84;100.00;98352.80;110059;1277;1017876;-80
2022/08/23 03:05:43;;;;;;;29.70;14.60;;;;;;;16.87;100.00;98348.42;110087;1276;1016410;-80
2022/08/23 03:11:23;;;;;;;25.20;12.90;;;;;;;16.95;100.00;98349.44;109892;1276;1016657;-79
2022/08/23 03:16:59;;;;;;;24.90;12.00;;;;;;;16.99;100.00;98343.60;109948;1276;1016367;-80
2022/08/23 03:22:25;;;;;;;27.60;12.90;;;;;;;16.99;100.00;98337.60;110084;1276;1016636;-80
2022/08/23 03:27:52;;;;;;;;;;;;;;;;;;;;;
2022/08/23 03:33:50;;;;;;;23.00;10.70;;;;;;;16.87;100.00;98348.90;109917;1276;1017982;-80
2022/08/23 03:39:40;;;;;;;29.70;13.10;;;;;;;16.87;100.00;98348.04;110062;1277;1016662;-80
2022/08/23 03:45:36;;;;;;;;;;;;;;;;;;;;;
2022/08/23 03:51:40;;;;;;;21.50;10.70;;;;;;;16.95;100.00;98362.73;110041;1277;1016631;-80
2022/08/23 03:57:28;;;;;;;25.20;11.30;;;;;;;16.92;100.00;98363.14;110036;1276;1016516;-80
2022/08/23 04:03:38;;;;;;;;;;;;;;;;;;;;;
2022/08/23 04:10:03;;;;;;;28.40;12.30;;;;;;;16.82;100.00;98366.36;109821;1276;1017040;-80
2022/08/23 04:16:08;;;;;;;31.80;13.60;;;;;;;16.86;100.00;98376.66;110110;1277;1016639;-80
2022/08/23 04:22:33;;;;;;;;;;;;;;;;;;;;;
2022/08/23 04:29:10;;;;;;;29.80;12.80;;;;;;;17.00;100.00;98371.14;109485;1282;1016996;-79
2022/08/23 04:35:51;;;;;;;44.70;16.30;;;;;;;17.02;100.00;98378.27;109622;1281;1015957;-80
2022/08/23 04:42:25;;;;;;;34.70;13.90;;;;;;;17.07;100.00;98381.04;109618;1281;1016327;-80
2022/08/23 04:49:09;;;;;;;33.20;13.30;;;;;;;17.11;100.00;98385.88;110017;1276;1016665;-80
2022/08/23 04:55:13;;;;;;;36.50;13.50;;;;;;;17.12;100.00;98395.27;109512;1282;1016276;-79
2022/08/23 05:01:14;;;;;;;33.80;12.90;;;;;;;17.19;100.00;98400.10;109570;1282;1016770;-80
2022/08/23 05:06:56;;;;;;;33.10;13.10;;;;;;;17.24;100.00;98407.14;109603;1282;1016147;-80
2022/08/23 05:12:27;;;;;;;29.60;12.40;;;;;;;17.32;100.00;98410.83;109246;1285;1016754;-79
2022/08/23 05:17:51;;;;;;;31.60;13.80;;;;;;;17.36;100.00;98407.80;109350;1281;1016277;-79
2022/08/23 05:23:33;;;;;;;32.10;14.60;;;;;;;17.49;100.00;98410.64;109855;1280;1017987;-78
2022/08/23 05:29:25;;;;;;;33.50;15.20;;;;;;;17.61;100.00;98415.79;109902;1277;1016535;-80
2022/08/23 05:35:32;;;;;;;31.30;14.50;;;;;;;17.72;100.00;98422.13;109944;1278;1016461;-80
2022/08/23 05:40:56;;;;;;;30.30;14.80;;;;;;;17.84;100.00;98422.15;109826;1279;1016039;-79
2022/08/23 05:47:05;;;;;;;30.40;15.50;;;;;;;17.91;100.00;98422.19;109775;1280;1016565;-80
2022/08/23 05:53:00;;;;;;;29.10;14.10;;;;;;;17.98;100.00;98426.09;109701;1285;1018384;-75
2022/08/23 05:58:43;;;;;;;28.80;15.80;;;;;;;18.09;100.00;98429.11;109275;1284;1016671;-79
2022/08/23 06:04:16;;;;;;;28.60;15.10;;;;;;;18.20;100.00;98431.27;109808;1286;1017105;-82
2022/08/23 06:09:38;;;;;;;26.90;14.20;;;;;;;18.31;100.00;98436.02;109851;1285;1016686;-77
2022/08/23 06:15:17;;;;;;;29.10;14.40;;;;;;;18.37;100.00;98447.41;109802;1277;1016598;-82
2022/08/23 06:21:15;;;;;;;24.40;14.00;;;;;;;18.38;100.00;98446.20;110535;1279;1017492;-81
2022/08/23 06:26:41;;;;;;;37.90;17.50;;;;;;;18.50;100.00;98443.25;109370;1284;1017250;-85
2022/08/23 06:32:08;;;;;;;36.10;18.20;;;;;;;18.70;100.00;98443.90;109908;1284;1016472;-84
2022/08/23 06:37:38;;;;;;;45.40;20.00;;;;;;;19.00;100.00;98446.80;109538;1284;1017098;-84
2022/08/23 06:43:12;;;;;;;42.40;20.10;;;;;;;19.27;100.00;98452.61;109818;1284;1017223;-83
2022/08/23 06:49:04;;;;;;;39.50;18.10;;;;;;;19.40;100.00;98456.68;109768;1284;1016178;-84
2022/08/23 06:55:08;;;;;;;37.10;17.30;;;;;;;19.47;100.00;98452.52;109732;1279;1019840;-83
2022/08/23 07:01:53;;;;;;;48.20;22.40;;;;;;;19.51;100.00;98458.02;110382;1275;1016650;-83
2022/08/23 07:08:15;;;;;;;;;;;;;;;;;;;;;
2022/08/23 07:13:47;;;;;;;;;;;;;;;;;;;;;
2022/08/23 07:19:48;;;;;;;47.60;22.80;;;;;;;19.78;100.00;98466.89;110228;1279;1016714;-83
2022/08/23 07:25:28;;;;;;;41.90;20.40;;;;;;;19.92;100.00;98470.38;110232;1280;1016144;-84
2022/08/23 07:31:18;;;;;;;;;;;;;;;19.96;100.00;98477.68;110359;1279;1016362;-84
2022/08/23 07:36:53;;;;;;;47.50;23.00;;;;;;;20.09;100.00;98482.13;109819;1281;1016719;-82
2022/08/23 07:42:21;;;;;;;47.70;23.40;;;;;;;20.22;100.00;98482.06;110093;1280;1018105;-81
2022/08/23 07:47:36;;;;;;;48.00;22.70;;;;;;;20.37;100.00;98480.30;109956;1277;1020208;-83
2022/08/23 07:52:53;;;;;;;38.00;20.60;;;;;;;20.46;100.00;98484.05;110488;1276;1016527;-81
2022/08/23 07:58:34;;;;;;;41.70;22.20;;;;;;;20.41;100.00;98492.04;110522;1276;1018529;-81
2022/08/23 08:04:08;;;;;;;39.60;20.20;;;;;;;20.40;100.00;98494.20;110769;1277;1016625;-82
2022/08/23 08:09:19;;;;;;;40.90;22.70;;;;;;;20.48;100.00;98503.52;110342;1277;1016295;-83
2022/08/23 08:14:47;;;;;;;;;;;;;;;;;;;;;
2022/08/23 08:20:29;;;;;;;36.20;20.50;;;;;;;20.61;100.00;98506.23;110456;1277;1016589;-81
2022/08/23 08:26:30;;;;;;;39.40;22.50;;;;;;;20.76;100.00;98516.77;110169;1277;1016615;-78
2022/08/23 08:31:48;;;;;;;49.00;25.60;;;;;;;20.83;100.00;98525.62;110677;1279;1016306;-79
2022/08/23 08:37:02;;;;;;;;;;;;;;;20.91;100.00;98526.53;110477;1277;1016658;-78
2022/08/23 08:42:46;;;;;;;37.20;22.00;;;;;;;20.92;100.00;98532.45;110141;1274;1018369;-78
2022/08/23 08:48:14;;;;;;;39.30;22.90;;;;;;;20.94;100.00;98535.67;110529;1276;1017037;-77
2022/08/23 08:53:41;;;;;;;47.30;26.50;;;;;;;20.95;100.00;98536.08;109977;1277;1016264;-76
2022/08/23 09:00:06;;;;;;;;;;;;;;;;;;;;;
2022/08/23 09:05:30;;;;;;;35.20;21.70;;;;;;;21.21;100.00;98540.39;109741;1279;1016624;-76
2022/08/23 09:11:11;;;;;;;;;;;;;;;21.50;100.00;98549.09;110457;1277;1016923;-77
2022/08/23 09:16:58;;;;;;;36.10;21.30;;;;;;;21.83;100.00;98562.51;109790;1278;1017002;-76
2022/08/23 09:22:57;;;;;;;;;;;;;;;;;;;;;
2022/08/23 09:28:23;;;;;;;39.50;24.60;;;;;;;21.79;100.00;98573.66;110087;1278;1017031;-80
2022/08/23 09:33:52;;;;;;;35.90;22.70;;;;;;;21.68;100.00;98572.19;136331;1277;1016143;-81
2022/08/23 09:39:50;;;;;;;40.50;23.80;;;;;;;21.70;100.00;98579.06;220933;1277;22706;-79
2022/08/23 09:45:00;;;;;;;45.80;24.80;;;;;;;21.56;100.00;98587.03;221892;1276;22561;-81
2022/08/23 09:50:23;;;;;;;44.70;22.80;;;;;;;21.31;100.00;98585.28;221652;1277;22578;-80
2022/08/23 09:55:54;;;;;;;42.70;23.80;;;;;;;21.12;100.00;98584.66;222525;1276;25480;-78
2022/08/23 10:01:38;;;;;;;53.50;25.30;;;;;;;20.97;100.00;98583.33;221491;1282;22670;-80
2022/08/23 10:07:31;;;;;;;54.40;26.40;;;;;;;20.80;100.00;98588.79;221484;1282;24844;-79
2022/08/23 10:12:47;;;;;;;56.80;24.70;;;;;;;20.74;100.00;98593.27;220285;1283;25898;-80
2022/08/23 10:18:49;;;;;;;54.80;24.60;;;;;;;20.75;100.00;98588.39;220691;1278;22737;-79
2022/08/23 10:24:37;;;;;;;59.20;23.20;;;;;;;20.83;100.00;98593.84;222425;1280;22485;-79
2022/08/23 10:30:04;;;;;;;50.50;19.90;;;;;;;20.79;100.00;98598.58;222624;1281;22533;-79
2022/08/23 10:35:39;;;;;;;49.90;20.40;;;;;;;20.67;100.00;98598.95;223184;1284;22495;-79
2022/08/23 10:41:30;;;;;;;50.70;21.40;;;;;;;20.61;100.00;98602.48;221597;1284;22496;-79
2022/08/23 10:46:43;;;;;;;49.10;21.00;;;;;;;20.65;100.00;98607.17;222020;1285;22564;-79
2022/08/23 10:52:15;;;;;;;55.90;22.60;;;;;;;20.63;100.00;98611.77;222952;1284;22662;-80
2022/08/23 10:57:35;;;;;;;54.50;21.90;;;;;;;20.77;100.00;98609.98;224537;1281;22558;-79
2022/08/23 11:03:16;;;;;;;45.00;19.60;;;;;;;20.97;100.00;98615.84;224993;1281;22523;-80
2022/08/23 11:08:44;;;;;;;;;;;;;;;;;;;;;
2022/08/23 11:14:11;;;;;;;46.20;21.80;;;;;;;21.73;100.00;98618.77;223249;1277;22571;-82
2022/08/23 11:19:58;;;;;;;46.30;23.90;;;;;;;21.91;100.00;98621.81;223648;1277;24131;-79
2022/08/23 11:25:42;;;;;;;47.10;22.00;;;;;;;21.98;100.00;98620.81;223800;1277;24236;-80
2022/08/23 11:31:28;;;;;;;41.00;21.50;;;;;;;22.05;100.00;98623.41;220467;1277;24238;-80
2022/08/23 11:37:40;;;;;;;57.20;22.90;;;;;;;21.98;100.00;98630.63;221267;1276;22544;-80
2022/08/23 11:43:25;;;;;;;45.00;22.90;;;;;;;21.93;100.00;98633.77;221325;1281;22623;-79
2022/08/23 11:48:44;;;;;;;40.70;20.40;;;;;;;21.67;100.00;98636.73;221616;1277;24232;-79
2022/08/23 11:54:32;;;;;;;47.10;20.90;;;;;;;21.48;100.00;98634.45;221265;1277;23019;-79
2022/08/23 12:00:45;;;;;;;41.80;20.90;;;;;;;21.42;100.00;98636.06;221326;1277;24249;-80
2022/08/23 12:06:09;;;;;;;46.10;22.50;;;;;;;21.38;100.00;98637.56;221592;1277;23167;-80
2022/08/23 12:11:47;;;;;;;42.60;20.80;;;;;;;21.33;100.00;98639.66;221693;1277;22566;-79
2022/08/23 12:17:29;;;;;;;42.50;22.30;;;;;;;21.41;100.00;98645.23;221647;1277;25406;-79
2022/08/23 12:23:23;;;;;;;40.20;21.00;;;;;;;21.59;100.00;98648.84;221756;1276;24472;-79
2022/08/23 12:29:05;;;;;;;34.10;20.60;;;;;;;22.05;100.00;98649.83;221525;1277;22600;-80
2022/08/23 12:35:18;;;;;;;;;;;;;;;;;;;;;
2022/08/23 12:40:42;;;;;;;46.80;26.60;;;;;;;22.83;100.00;98651.59;221578;1277;22566;-75
2022/08/23 12:46:10;;;;;;;43.00;26.00;;;;;;;23.19;100.00;98652.30;220071;1280;24292;-75
2022/08/23 12:51:28;;;;;;;39.20;25.10;;;;;;;23.49;100.00;98651.47;220406;1278;24237;-78
2022/08/23 12:56:59;;;;;;;42.00;27.20;;;;;;;23.83;100.00;98652.90;220243;1279;22583;-79
2022/08/23 13:02:30;;;;;;;36.20;25.80;;;;;;;23.88;100.00;98663.81;221834;1276;25075;-79
2022/08/23 13:07:42;;;;;;;42.90;28.30;;;;;;;23.61;100.00;98659.68;221830;1277;24357;-79
2022/08/23 13:12:54;;;;;;;35.30;24.90;;;;;;;23.56;100.00;98663.39;221807;1276;23135;-79
2022/08/23 13:18:05;;;;;;;33.70;23.40;;;;;;;23.68;100.00;98656.23;220411;1276;22593;-79
2022/08/23 13:23:16;;;;;;;30.30;22.50;;;;;;;23.73;100.00;98656.81;220836;1279;25342;-77
2022/08/23 13:28:26;;;;;;;34.00;23.40;;;;;;;23.63;100.00;98658.69;220536;1276;26272;-80
2022/08/23 13:33:37;;;;;;;29.70;21.80;;;;;;;23.59;100.00;98665.07;220648;1277;22570;-79
2022/08/23 13:39:03;;;;;;;26.90;19.60;;;;;;;23.42;100.00;98663.52;220771;1276;23916;-79
2022/08/23 13:44:35;;;;;;;24.20;19.20;;;;;;;23.30;100.00;98660.83;219109;1277;3263971;-80
2022/08/23 13:49:48;;;;;;;24.80;18.60;;;;;;;23.38;100.00;98658.10;222727;1276;24202;-79
2022/08/23 13:54:54;;;;;;;23.40;18.50;;;;;;;23.51;100.00;98653.75;220573;1276;22542;-78
2022/08/23 14:00:05;;;;;;;22.90;18.40;;;;;;;23.83;100.00;98648.77;221794;1278;22606;-79
2022/08/23 14:05:21;;;;;;;26.70;23.00;;;;;;;24.15;100.00;98649.05;224327;1276;22597;-80
2022/08/23 14:10:39;;;;;;;26.50;18.40;;;;;;;24.44;100.00;98642.47;224121;1276;22754;-80
2022/08/23 14:16:05;;;;;;;23.90;19.50;;;;;;;24.55;100.00;98636.64;224051;1276;22700;-79
2022/08/23 14:21:28;;;;;;;29.30;22.10;;;;;;;24.44;100.00;98634.58;224122;1277;22582;-80
2022/08/23 14:26:35;;;;;;;25.90;20.20;;;;;;;24.31;100.00;98634.20;223788;1276;24393;-80
2022/08/23 14:31:44;;;;;;;30.30;22.30;;;;;;;24.20;100.00;98638.52;223922;1277;23706;-80
2022/08/23 14:36:53;;;;;;;31.00;21.90;;;;;;;24.04;100.00;98643.75;223597;1277;22515;-80
2022/08/23 14:42:30;;;;;;;32.50;21.90;;;;;;;23.83;100.00;98649.55;224054;1277;22640;-80
2022/08/23 14:47:40;;;;;;;31.20;22.90;;;;;;;23.63;100.00;98642.36;223009;1276;22552;-80
2022/08/23 14:52:50;;;;;;;30.30;21.40;;;;;;;23.54;100.00;98648.23;222384;1276;22617;-79
2022/08/23 14:58:03;;;;;;;32.80;21.90;;;;;;;23.54;100.00;98646.36;222304;1276;22499;-79
2022/08/23 15:03:17;;;;;;;37.80;23.60;;;;;;;23.75;100.00;98646.91;221571;1276;23210;-80
2022/08/23 15:08:41;;;;;;;36.60;23.50;;;;;;;23.86;100.00;98645.51;222765;1276;22563;-80
2022/08/23 15:13:49;;;;;;;34.90;23.90;;;;;;;23.70;100.00;98643.74;221981;1277;22533;-80
2022/08/23 15:19:00;;;;;;;36.40;24.10;;;;;;;23.41;100.00;98647.73;221570;1276;22586;-80
2022/08/23 15:24:12;;;;;;;37.80;24.50;;;;;;;23.27;100.00;98645.90;220862;1276;24215;-80
2022/08/23 15:29:25;;;;;;;42.80;26.50;;;;;;;23.23;100.00;98657.73;220922;1276;22601;-81
2022/08/23 15:34:57;;;;;;;46.30;26.50;;;;;;;23.22;100.00;98668.95;220888;1277;22548;-80
2022/08/23 15:40:24;;;;;;;39.80;25.60;;;;;;;23.11;100.00;98669.55;220779;1277;22570;-80
2022/08/23 15:45:40;;;;;;;40.10;23.90;;;;;;;22.91;100.00;98681.50;220733;1277;25478;-79
2022/08/23 15:50:56;;;;;;;37.30;23.20;;;;;;;22.82;100.00;98689.42;220217;1277;23215;-81
2022/08/23 15:56:09;;;;;;;35.60;23.30;;;;;;;22.72;100.00;98691.18;220518;1277;24229;-79
2022/08/23 16:01:38;;;;;;;;;;;;;;;;;;;;;
2022/08/23 16:07:09;;;;;;;35.80;23.60;;;;;;;22.54;100.00;98702.13;220283;1278;24255;-81
2022/08/23 16:12:17;;;;;;;40.60;24.80;;;;;;;22.47;100.00;98703.20;220382;1278;22592;-80
2022/08/23 16:18:06;;;;;;;41.60;25.40;;;;;;;22.43;100.00;98698.77;220433;1276;24256;-79
2022/08/23 16:23:32;;;;;;;32.50;21.80;;;;;;;22.33;100.00;98703.08;219909;1278;22655;-80
2022/08/23 16:29:34;;;;;;;40.20;24.20;;;;;;;22.09;100.00;98702.10;220596;1276;22573;-80
2022/08/23 16:34:57;;;;;;;44.80;24.40;;;;;;;21.98;100.00;98709.64;219450;1282;24333;-80
2022/08/23 16:40:23;;;;;;;41.20;24.50;;;;;;;21.90;100.00;98708.43;219192;1284;22570;-80
2022/08/23 16:46:16;;;;;;;;;;;;;;;;;;;;;
2022/08/23 16:51:25;;;;;;;46.50;25.60;;;;;;;21.57;100.00;98720.20;219373;1282;25367;-80
2022/08/23 16:56:41;;;;;;;41.50;24.60;;;;;;;21.39;100.00;98732.09;218382;1284;24269;-80
2022/08/23 17:01:50;;;;;;;96.10;65.50;;;;;;;21.24;100.00;98730.41;219205;1282;25255;-80
2022/08/23 17:07:15;;;;;;;50.80;27.70;;;;;;;21.15;100.00;98734.84;220291;1279;22542;-80
2022/08/23 17:12:20;;;;;;;49.10;26.50;;;;;;;21.03;100.00;98729.94;220622;1276;23809;-80
2022/08/23 17:17:42;;;;;;;;;;;;;;;;;;;;;
2022/08/23 17:23:04;;;;;;;48.40;27.10;;;;;;;20.66;100.00;98735.64;220233;1274;22622;-80
2022/08/23 17:28:31;;;;;;;54.30;27.80;;;;;;;20.48;100.00;98741.54;220594;1277;23002;-79
2022/08/23 17:33:42;;;;;;;54.90;28.20;;;;;;;20.32;100.00;98744.55;220330;1276;25326;-80
2022/08/23 17:39:23;;;;;;;52.70;27.60;;;;;;;20.13;100.00;98745.09;220371;1276;24425;-80
2022/08/23 17:44:35;;;;;;;64.90;30.00;;;;;;;19.92;100.00;98751.13;220338;1276;25327;-80
2022/08/23 17:49:50;;;;;;;67.00;30.40;;;;;;;19.71;100.00;98759.15;220598;1276;22609;-80
2022/08/23 17:55:00;;;;;;;67.70;28.80;;;;;;;19.51;100.00;98766.14;220684;1276;24167;-81
2022/08/23 18:00:19;;;;;;;66.30;27.80;;;;;;;19.34;100.00;98780.99;220634;1276;25509;-80
2022/08/23 18:05:32;;;;;;;70.20;29.50;;;;;;;19.25;100.00;98795.33;220488;1279;22587;-80
2022/08/23 18:10:53;;;;;;;69.20;28.80;;;;;;;19.20;100.00;98800.08;220433;1276;22613;-82
2022/08/23 18:16:19;;;;;;;71.00;27.20;;;;;;;19.17;100.00;98807.52;220243;1277;25383;-80
2022/08/23 18:21:52;;;;;;;70.50;26.70;;;;;;;19.10;100.00;98798.64;220671;1276;22573;-78
2022/08/23 18:32:47;;;;;;;68.60;25.50;;;;;;;19.09;100.00;98818.38;220362;1277;24281;-78
2022/08/23 18:38:04;;;;;;;74.20;27.10;;;;;;;19.06;100.00;98821.72;220448;1276;22571;-80
2022/08/23 18:43:32;;;;;;;;;;;;;;;19.04;100.00;98819.98;220701;1276;22537;-82
2022/08/23 18:48:53;;;;;;;75.10;26.80;;;;;;;19.02;100.00;98821.98;220707;1276;22687;-80
2022/08/23 18:54:01;;;;;;;68.00;25.40;;;;;;;19.03;100.00;98829.45;220512;1274;22618;-79
2022/08/23 18:59:16;;;;;;;77.00;26.80;;;;;;;19.01;100.00;98840.43;220328;1276;24151;-81
2022/08/23 19:04:18;;;;;;;71.80;26.40;;;;;;;19.00;100.00;98845.43;220408;1276;25050;-78
2022/08/23 19:09:39;;;;;;;76.60;26.30;;;;;;;19.01;100.00;98847.62;220572;1275;22632;-81
2022/08/23 19:14:42;;;;;;;77.90;28.30;;;;;;;18.98;100.00;98850.05;220746;1277;25255;-80
2022/08/23 19:19:44;;;;;;;78.60;26.60;;;;;;;18.98;100.00;98861.05;220310;1277;24441;-80
2022/08/23 19:24:52;;;;;;;75.90;26.70;;;;;;;18.97;100.00;98863.81;220136;1277;22558;-79
2022/08/23 19:30:07;;;;;;;79.00;27.60;;;;;;;18.94;100.00;98865.83;220765;1277;23896;-80
2022/08/23 19:35:34;;;;;;;;;;;;;;;;;;;;;
2022/08/23 19:40:51;;;;;;;79.30;26.00;;;;;;;18.92;100.00;98874.98;220669;1277;22603;-80
2022/08/23 19:46:20;;;;;;;;;;;;;;;18.88;100.00;98880.04;220645;1276;24234;-80
2022/08/23 19:51:32;;;;;;;83.60;25.80;;;;;;;18.86;100.00;98887.48;220575;1276;22560;-80
2022/08/23 19:57:04;;;;;;;94.60;27.10;;;;;;;18.82;100.00;98884.88;220612;1276;22601;-79
2022/08/23 20:02:15;;;;;;;86.10;27.00;;;;;;;18.77;100.00;98887.75;220259;1276;24292;-79
2022/08/23 20:07:21;;;;;;;87.90;26.50;;;;;;;18.71;100.00;98888.65;220511;1276;24260;-79
2022/08/23 20:12:32;;;;;;;86.60;25.90;;;;;;;18.64;100.00;98885.23;219661;1276;25410;-79
2022/08/23 20:17:43;;;;;;;86.30;25.90;;;;;;;18.56;100.00;98880.81;220636;1276;24035;-80
2022/08/23 20:29:16;;;;;;;86.50;26.40;;;;;;;18.46;100.00;98893.85;162361;1276;1005859;-80
2022/08/23 20:34:31;;;;;;;66.80;25.80;;;;;;;18.47;100.00;98894.02;110104;1276;1017398;-79
2022/08/23 20:40:18;;;;;;;68.10;26.50;;;;;;;18.51;100.00;98902.34;109729;1281;1016375;-78
2022/08/23 20:46:08;;;;;;;68.60;26.60;;;;;;;18.56;100.00;98900.74;109372;1282;1016279;-80
2022/08/23 20:51:37;;;;;;;69.80;27.40;;;;;;;18.57;100.00;98894.34;109767;1281;1016446;-80
2022/08/23 20:56:52;;;;;;;69.60;26.70;;;;;;;18.61;100.00;98889.52;109738;1281;1016357;-79
2022/08/23 21:02:26;;;;;;;62.40;24.10;;;;;;;18.63;100.00;98892.66;109755;1281;1016369;-79
2022/08/23 21:07:31;;;;;;;78.30;27.20;;;;;;;18.67;100.00;98897.42;109948;1280;1016703;-78
2022/08/23 21:13:12;;;;;;;;;;;;;;;;;;;;;
2022/08/23 21:18:40;;;;;;;80.10;27.50;;;;;;;18.71;100.00;98899.67;109784;1276;1016992;-79
2022/08/23 21:24:08;;;;;;;;;;;;;;;;;;;;;
2022/08/23 21:29:42;;;;;;;91.10;29.80;;;;;;;18.71;100.00;98888.25;110081;1277;1016617;-79
2022/08/23 21:35:01;;;;;;;91.50;30.20;;;;;;;18.73;100.00;98885.09;110098;1276;1016580;-79
2022/08/23 21:40:20;;;;;;;93.20;31.30;;;;;;;18.75;100.00;98876.29;109857;1276;1016581;-79
2022/08/23 21:45:51;;;;;;;106.30;31.50;;;;;;;18.72;100.00;98884.12;116367;1277;1019048;-78
2022/08/23 21:51:30;;;;;;;97.20;29.30;;;;;;;18.68;100.00;98874.69;219852;1276;25447;-79
2022/08/23 21:56:51;;;;;;;99.80;29.60;;;;;;;18.64;100.00;98867.42;211081;1276;1005279;-80
2022/08/23 22:02:30;;;;;;;;;;;;;;;;;;;;;
2022/08/23 22:08:14;;;;;;;113.30;29.40;;;;;;;18.56;100.00;98865.64;220711;1277;22702;-79
2022/08/23 22:13:31;;;;;;;94.00;25.40;;;;;;;18.53;100.00;98862.98;220752;1276;25377;-79
2022/08/23 22:19:18;;;;;;;110.80;26.70;;;;;;;18.47;100.00;98866.81;220456;1278;22656;-79
2022/08/23 22:24:41;;;;;;;113.50;27.40;;;;;;;18.41;100.00;98862.73;219090;1285;24454;-80
2022/08/23 22:29:52;;;;;;;112.70;25.70;;;;;;;18.39;100.00;98851.29;219255;1285;23823;-79
2022/08/23 22:35:31;;;;;;;119.10;25.80;;;;;;;18.35;100.00;98854.20;219274;1284;24504;-80
2022/08/23 22:41:01;;;;;;;107.10;24.00;;;;;;;18.37;100.00;98854.40;219277;1285;22613;-79
2022/08/23 22:46:19;;;;;;;116.10;25.10;;;;;;;18.37;100.00;98854.02;219151;1284;24696;-79
2022/08/23 22:51:50;;;;;;;148.70;28.90;;;;;;;18.35;100.00;98846.98;219400;1284;26608;-80
2022/08/23 22:57:12;;;;;;;159.50;29.30;;;;;;;18.32;100.00;98852.48;220473;1279;25370;-80
2022/08/23 23:02:31;;;;;;;146.60;26.90;;;;;;;18.32;100.00;98850.61;220656;1276;23827;-79
2022/08/23 23:13:38;;;;;;;160.00;27.70;;;;;;;18.27;100.00;98858.51;220640;1276;23892;-80
2022/08/23 23:25:16;;;;;;;183.10;28.10;;;;;;;18.22;100.00;98856.81;220624;1276;24386;-80
2022/08/23 23:30:33;;;;;;;164.80;26.50;;;;;;;18.22;100.00;98866.94;220645;1276;25261;-80
2022/08/23 23:36:10;;;;;;;146.00;23.50;;;;;;;18.19;100.00;98865.23;220512;1276;22559;-80
2022/08/23 23:41:51;;;;;;;;;;;;;;;;;;;;;
2022/08/23 23:47:17;;;;;;;153.20;25.10;;;;;;;18.16;100.00;98854.57;220739;1277;25905;-80
2022/08/23 23:52:50;;;;;;;136.70;24.50;;;;;;;18.12;100.00;98852.67;220459;1276;22716;-78
2022/08/23 23:58:20;;;;;;;141.30;23.40;;;;;;;18.07;100.00;98851.82;220710;1276;22550;-80
